sensor_id;sensor_type;location;lat;lon;timestamp;P1;durP1;ratioP1;P2;durP2;ratioP2
40453;SDS011;26160;51.858;4.398;2023-02-02T00:04:42;31.53;;;4.93;;
40453;SDS011;26160;51.858;4.398;2023-02-02T00:07:08;33.73;;;5.10;;
40453;SDS011;26160;51.858;4.398;2023-02-02T00:09:39;31.33;;;4.57;;
40453;SDS011;26160;51.858;4.398;2023-02-02T00:12:23;25.77;;;4.80;;
40453;SDS011;26160;51.858;4.398;2023-02-02T00:14:51;27.50;;;5.07;;
40453;SDS011;26160;51.858;4.398;2023-02-02T00:17:17;22.23;;;4.10;;
40453;SDS011;26160;51.858;4.398;2023-02-02T00:19:43;25.97;;;5.00;;
40453;SDS011;26160;51.858;4.398;2023-02-02T00:22:11;31.80;;;4.97;;
40453;SDS011;26160;51.858;4.398;2023-02-02T00:24:37;19.40;;;3.40;;
40453;SDS011;26160;51.858;4.398;2023-02-02T00:27:03;26.97;;;4.33;;
40453;SDS011;26160;51.858;4.398;2023-02-02T00:29:29;25.33;;;3.87;;
40453;SDS011;26160;51.858;4.398;2023-02-02T00:32:00;30.67;;;5.87;;
40453;SDS011;26160;51.858;4.398;2023-02-02T00:34:32;29.13;;;4.80;;
40453;SDS011;26160;51.858;4.398;2023-02-02T00:36:58;29.85;;;4.88;;
40453;SDS011;26160;51.858;4.398;2023-02-02T00:39:42;27.20;;;5.40;;
40453;SDS011;26160;51.858;4.398;2023-02-02T00:42:11;28.40;;;4.77;;
40453;SDS011;26160;51.858;4.398;2023-02-02T00:44:40;30.27;;;4.40;;
40453;SDS011;26160;51.858;4.398;2023-02-02T00:47:30;39.13;;;6.40;;
40453;SDS011;26160;51.858;4.398;2023-02-02T00:49:56;22.40;;;3.90;;
40453;SDS011;26160;51.858;4.398;2023-02-02T00:52:28;24.87;;;4.20;;
40453;SDS011;26160;51.858;4.398;2023-02-02T00:57:30;26.87;;;4.17;;
40453;SDS011;26160;51.858;4.398;2023-02-02T01:02:28;24.63;;;5.60;;
40453;SDS011;26160;51.858;4.398;2023-02-02T01:04:54;30.10;;;4.17;;
40453;SDS011;26160;51.858;4.398;2023-02-02T01:07:20;29.27;;;5.40;;
40453;SDS011;26160;51.858;4.398;2023-02-02T01:09:46;28.20;;;4.93;;
40453;SDS011;26160;51.858;4.398;2023-02-02T01:12:12;33.33;;;4.80;;
40453;SDS011;26160;51.858;4.398;2023-02-02T01:14:38;24.03;;;4.30;;
40453;SDS011;26160;51.858;4.398;2023-02-02T01:17:04;27.63;;;4.23;;
40453;SDS011;26160;51.858;4.398;2023-02-02T01:19:32;23.67;;;3.67;;
40453;SDS011;26160;51.858;4.398;2023-02-02T01:21:59;30.80;;;4.97;;
40453;SDS011;26160;51.858;4.398;2023-02-02T01:24:29;26.17;;;5.40;;
40453;SDS011;26160;51.858;4.398;2023-02-02T01:26:55;28.10;;;4.30;;
40453;SDS011;26160;51.858;4.398;2023-02-02T01:29:21;25.23;;;4.17;;
40453;SDS011;26160;51.858;4.398;2023-02-02T01:31:47;25.23;;;4.43;;
40453;SDS011;26160;51.858;4.398;2023-02-02T01:34:15;30.83;;;4.70;;
40453;SDS011;26160;51.858;4.398;2023-02-02T01:36:41;22.20;;;4.20;;
40453;SDS011;26160;51.858;4.398;2023-02-02T01:41:42;24.17;;;4.40;;
40453;SDS011;26160;51.858;4.398;2023-02-02T01:47:12;21.80;;;4.13;;
40453;SDS011;26160;51.858;4.398;2023-02-02T01:49:39;18.73;;;3.63;;
40453;SDS011;26160;51.858;4.398;2023-02-02T01:52:06;22.83;;;4.57;;
40453;SDS011;26160;51.858;4.398;2023-02-02T01:54:35;28.33;;;4.43;;
40453;SDS011;26160;51.858;4.398;2023-02-02T01:57:22;21.17;;;4.13;;
40453;SDS011;26160;51.858;4.398;2023-02-02T01:59:56;24.67;;;3.83;;
40453;SDS011;26160;51.858;4.398;2023-02-02T02:07:29;19.97;;;5.03;;
40453;SDS011;26160;51.858;4.398;2023-02-02T02:10:07;27.47;;;4.77;;
40453;SDS011;26160;51.858;4.398;2023-02-02T02:12:48;21.27;;;4.27;;
40453;SDS011;26160;51.858;4.398;2023-02-02T02:15:15;30.27;;;4.30;;
40453;SDS011;26160;51.858;4.398;2023-02-02T02:18:04;27.10;;;4.53;;
40453;SDS011;26160;51.858;4.398;2023-02-02T02:20:57;25.40;;;4.07;;
40453;SDS011;26160;51.858;4.398;2023-02-02T02:30:37;29.07;;;4.73;;
40453;SDS011;26160;51.858;4.398;2023-02-02T02:33:26;28.83;;;4.93;;
40453;SDS011;26160;51.858;4.398;2023-02-02T02:38:59;27.20;;;4.63;;
40453;SDS011;26160;51.858;4.398;2023-02-02T02:41:37;25.63;;;4.63;;
40453;SDS011;26160;51.858;4.398;2023-02-02T02:44:11;29.43;;;5.03;;
40453;SDS011;26160;51.858;4.398;2023-02-02T02:46:40;23.73;;;4.57;;
40453;SDS011;26160;51.858;4.398;2023-02-02T02:49:08;21.87;;;5.60;;
40453;SDS011;26160;51.858;4.398;2023-02-02T02:51:49;25.10;;;4.60;;
40453;SDS011;26160;51.858;4.398;2023-02-02T03:08:14;24.43;;;4.40;;
40453;SDS011;26160;51.858;4.398;2023-02-02T03:10:32;29.33;;;4.20;;
40453;SDS011;26160;51.858;4.398;2023-02-02T03:13:00;23.57;;;4.13;;
40453;SDS011;26160;51.858;4.398;2023-02-02T03:15:34;29.73;;;4.85;;
40453;SDS011;26160;51.858;4.398;2023-02-02T03:18:01;29.30;;;3.83;;
40453;SDS011;26160;51.858;4.398;2023-02-02T03:20:30;20.60;;;3.87;;
40453;SDS011;26160;51.858;4.398;2023-02-02T03:22:57;23.23;;;3.10;;
40453;SDS011;26160;51.858;4.398;2023-02-02T03:25:33;22.27;;;3.87;;
40453;SDS011;26160;51.858;4.398;2023-02-02T03:27:59;26.37;;;4.90;;
40453;SDS011;26160;51.858;4.398;2023-02-02T03:30:26;27.53;;;4.27;;
40453;SDS011;26160;51.858;4.398;2023-02-02T03:32:54;26.73;;;3.70;;
40453;SDS011;26160;51.858;4.398;2023-02-02T03:35:23;25.97;;;4.43;;
40453;SDS011;26160;51.858;4.398;2023-02-02T03:37:50;24.40;;;3.70;;
40453;SDS011;26160;51.858;4.398;2023-02-02T03:40:17;24.37;;;3.83;;
40453;SDS011;26160;51.858;4.398;2023-02-02T03:42:43;24.00;;;3.77;;
40453;SDS011;26160;51.858;4.398;2023-02-02T03:45:17;17.53;;;3.13;;
40453;SDS011;26160;51.858;4.398;2023-02-02T03:50:41;22.03;;;3.53;;
40453;SDS011;26160;51.858;4.398;2023-02-02T03:53:12;16.80;;;3.73;;
40453;SDS011;26160;51.858;4.398;2023-02-02T03:55:39;13.67;;;3.27;;
40453;SDS011;26160;51.858;4.398;2023-02-02T03:58:06;22.83;;;4.33;;
40453;SDS011;26160;51.858;4.398;2023-02-02T04:00:34;17.07;;;3.10;;
40453;SDS011;26160;51.858;4.398;2023-02-02T04:03:00;22.10;;;3.87;;
40453;SDS011;26160;51.858;4.398;2023-02-02T04:05:27;21.17;;;5.07;;
40453;SDS011;26160;51.858;4.398;2023-02-02T04:07:56;21.13;;;2.93;;
40453;SDS011;26160;51.858;4.398;2023-02-02T04:10:29;22.13;;;3.47;;
40453;SDS011;26160;51.858;4.398;2023-02-02T04:12:55;27.00;;;4.53;;
40453;SDS011;26160;51.858;4.398;2023-02-02T04:15:21;20.43;;;3.93;;
40453;SDS011;26160;51.858;4.398;2023-02-02T04:17:47;16.97;;;3.70;;
40453;SDS011;26160;51.858;4.398;2023-02-02T04:20:15;21.93;;;4.00;;
40453;SDS011;26160;51.858;4.398;2023-02-02T04:22:43;17.60;;;3.43;;
40453;SDS011;26160;51.858;4.398;2023-02-02T04:25:09;21.50;;;3.17;;
40453;SDS011;26160;51.858;4.398;2023-02-02T04:27:39;21.00;;;3.57;;
40453;SDS011;26160;51.858;4.398;2023-02-02T04:30:12;24.37;;;3.00;;
40453;SDS011;26160;51.858;4.398;2023-02-02T04:32:38;27.20;;;3.80;;
40453;SDS011;26160;51.858;4.398;2023-02-02T04:35:21;21.47;;;3.47;;
40453;SDS011;26160;51.858;4.398;2023-02-02T04:37:47;24.65;;;4.35;;
40453;SDS011;26160;51.858;4.398;2023-02-02T04:40:15;21.03;;;3.43;;
40453;SDS011;26160;51.858;4.398;2023-02-02T04:42:41;20.90;;;3.63;;
40453;SDS011;26160;51.858;4.398;2023-02-02T04:45:09;24.00;;;3.63;;
40453;SDS011;26160;51.858;4.398;2023-02-02T04:50:20;23.10;;;4.27;;
40453;SDS011;26160;51.858;4.398;2023-02-02T04:52:49;23.53;;;4.33;;
40453;SDS011;26160;51.858;4.398;2023-02-02T04:58:33;23.47;;;3.67;;
40453;SDS011;26160;51.858;4.398;2023-02-02T05:01:28;24.30;;;4.07;;
40453;SDS011;26160;51.858;4.398;2023-02-02T05:06:31;27.53;;;4.17;;
40453;SDS011;26160;51.858;4.398;2023-02-02T05:09:15;24.13;;;4.27;;
40453;SDS011;26160;51.858;4.398;2023-02-02T05:11:41;21.30;;;3.27;;
40453;SDS011;26160;51.858;4.398;2023-02-02T05:14:09;25.37;;;3.70;;
40453;SDS011;26160;51.858;4.398;2023-02-02T05:16:44;20.63;;;3.10;;
40453;SDS011;26160;51.858;4.398;2023-02-02T05:19:10;25.10;;;3.67;;
40453;SDS011;26160;51.858;4.398;2023-02-02T05:21:37;19.97;;;4.17;;
40453;SDS011;26160;51.858;4.398;2023-02-02T05:24:10;23.77;;;3.13;;
40453;SDS011;26160;51.858;4.398;2023-02-02T05:26:37;20.50;;;3.43;;
40453;SDS011;26160;51.858;4.398;2023-02-02T05:29:03;19.67;;;3.47;;
40453;SDS011;26160;51.858;4.398;2023-02-02T05:31:37;22.63;;;3.80;;
40453;SDS011;26160;51.858;4.398;2023-02-02T05:39:47;22.20;;;3.42;;
40453;SDS011;26160;51.858;4.398;2023-02-02T05:42:16;19.43;;;3.70;;
40453;SDS011;26160;51.858;4.398;2023-02-02T05:44:42;27.73;;;4.77;;
40453;SDS011;26160;51.858;4.398;2023-02-02T05:47:08;18.53;;;4.50;;
40453;SDS011;26160;51.858;4.398;2023-02-02T05:49:34;17.47;;;3.77;;
40453;SDS011;26160;51.858;4.398;2023-02-02T05:52:02;26.57;;;3.67;;
40453;SDS011;26160;51.858;4.398;2023-02-02T05:54:29;20.17;;;3.53;;
40453;SDS011;26160;51.858;4.398;2023-02-02T06:14:58;26.70;;;4.40;;
40453;SDS011;26160;51.858;4.398;2023-02-02T06:18:03;20.33;;;3.37;;
40453;SDS011;26160;51.858;4.398;2023-02-02T06:23:36;26.10;;;4.00;;
40453;SDS011;26160;51.858;4.398;2023-02-02T06:32:28;25.07;;;4.10;;
40453;SDS011;26160;51.858;4.398;2023-02-02T06:35:54;20.77;;;3.60;;
40453;SDS011;26160;51.858;4.398;2023-02-02T06:41:08;19.10;;;4.03;;
40453;SDS011;26160;51.858;4.398;2023-02-02T07:14:36;22.00;;;3.30;;
40453;SDS011;26160;51.858;4.398;2023-02-02T07:27:18;27.03;;;4.40;;
40453;SDS011;26160;51.858;4.398;2023-02-02T07:35:37;30.37;;;3.80;;
40453;SDS011;26160;51.858;4.398;2023-02-02T07:51:25;23.13;;;3.70;;
40453;SDS011;26160;51.858;4.398;2023-02-02T07:57:06;21.47;;;3.23;;
40453;SDS011;26160;51.858;4.398;2023-02-02T08:19:35;28.27;;;4.17;;
40453;SDS011;26160;51.858;4.398;2023-02-02T08:24:37;21.70;;;3.77;;
40453;SDS011;26160;51.858;4.398;2023-02-02T08:29:41;31.57;;;3.83;;
40453;SDS011;26160;51.858;4.398;2023-02-02T08:34:47;23.27;;;3.80;;
40453;SDS011;26160;51.858;4.398;2023-02-02T08:37:17;27.87;;;3.27;;
40453;SDS011;26160;51.858;4.398;2023-02-02T08:39:43;20.60;;;4.13;;
40453;SDS011;26160;51.858;4.398;2023-02-02T08:53:01;26.27;;;3.67;;
40453;SDS011;26160;51.858;4.398;2023-02-02T08:55:32;25.15;;;3.90;;
40453;SDS011;26160;51.858;4.398;2023-02-02T09:10:27;20.63;;;3.10;;
40453;SDS011;26160;51.858;4.398;2023-02-02T09:12:56;21.77;;;3.37;;
40453;SDS011;26160;51.858;4.398;2023-02-02T09:15:30;20.60;;;3.30;;
40453;SDS011;26160;51.858;4.398;2023-02-02T09:18:09;23.07;;;3.07;;
40453;SDS011;26160;51.858;4.398;2023-02-02T09:20:54;16.20;;;2.70;;
40453;SDS011;26160;51.858;4.398;2023-02-02T09:23:25;25.63;;;3.83;;
40453;SDS011;26160;51.858;4.398;2023-02-02T09:28:47;17.97;;;3.43;;
40453;SDS011;26160;51.858;4.398;2023-02-02T09:31:48;28.43;;;3.77;;
40453;SDS011;26160;51.858;4.398;2023-02-02T09:34:24;20.53;;;3.37;;
40453;SDS011;26160;51.858;4.398;2023-02-02T09:36:58;23.97;;;3.37;;
40453;SDS011;26160;51.858;4.398;2023-02-02T09:39:27;16.63;;;3.13;;
40453;SDS011;26160;51.858;4.398;2023-02-02T09:50:29;22.87;;;3.13;;
40453;SDS011;26160;51.858;4.398;2023-02-02T09:53:24;20.97;;;3.47;;
40453;SDS011;26160;51.858;4.398;2023-02-02T09:56:03;20.07;;;3.50;;
40453;SDS011;26160;51.858;4.398;2023-02-02T09:58:33;24.27;;;3.47;;
40453;SDS011;26160;51.858;4.398;2023-02-02T10:01:03;24.10;;;2.90;;
40453;SDS011;26160;51.858;4.398;2023-02-02T10:03:58;20.05;;;3.08;;
40453;SDS011;26160;51.858;4.398;2023-02-02T10:06:36;19.60;;;3.00;;
40453;SDS011;26160;51.858;4.398;2023-02-02T10:09:26;14.33;;;2.40;;
40453;SDS011;26160;51.858;4.398;2023-02-02T10:23:30;18.67;;;2.90;;
40453;SDS011;26160;51.858;4.398;2023-02-02T10:34:31;19.77;;;3.47;;
40453;SDS011;26160;51.858;4.398;2023-02-02T10:45:39;19.70;;;3.17;;
40453;SDS011;26160;51.858;4.398;2023-02-02T10:48:18;17.30;;;2.83;;
40453;SDS011;26160;51.858;4.398;2023-02-02T10:50:51;18.17;;;3.60;;
40453;SDS011;26160;51.858;4.398;2023-02-02T10:53:20;14.73;;;2.78;;
40453;SDS011;26160;51.858;4.398;2023-02-02T10:58:48;19.43;;;3.37;;
40453;SDS011;26160;51.858;4.398;2023-02-02T11:01:21;18.47;;;2.97;;
40453;SDS011;26160;51.858;4.398;2023-02-02T11:03:48;19.50;;;3.40;;
40453;SDS011;26160;51.858;4.398;2023-02-02T11:06:34;16.02;;;2.80;;
40453;SDS011;26160;51.858;4.398;2023-02-02T11:09:26;24.25;;;3.20;;
40453;SDS011;26160;51.858;4.398;2023-02-02T11:12:31;16.33;;;2.83;;
40453;SDS011;26160;51.858;4.398;2023-02-02T11:14:58;20.20;;;3.00;;
40453;SDS011;26160;51.858;4.398;2023-02-02T11:17:33;15.13;;;2.45;;
40453;SDS011;26160;51.858;4.398;2023-02-02T11:20:00;16.27;;;2.70;;
40453;SDS011;26160;51.858;4.398;2023-02-02T11:22:41;15.13;;;3.13;;
40453;SDS011;26160;51.858;4.398;2023-02-02T11:31:01;18.57;;;3.20;;
40453;SDS011;26160;51.858;4.398;2023-02-02T11:33:29;16.07;;;2.73;;
40453;SDS011;26160;51.858;4.398;2023-02-02T11:39:03;18.73;;;3.57;;
40453;SDS011;26160;51.858;4.398;2023-02-02T11:41:48;24.00;;;3.10;;
40453;SDS011;26160;51.858;4.398;2023-02-02T11:44:22;19.37;;;2.97;;
40453;SDS011;26160;51.858;4.398;2023-02-02T11:47:02;16.73;;;2.83;;
40453;SDS011;26160;51.858;4.398;2023-02-02T11:52:18;13.33;;;2.23;;
40453;SDS011;26160;51.858;4.398;2023-02-02T11:54:50;14.67;;;2.50;;
40453;SDS011;26160;51.858;4.398;2023-02-02T11:57:27;19.88;;;2.83;;
40453;SDS011;26160;51.858;4.398;2023-02-02T12:03:00;20.00;;;2.53;;
40453;SDS011;26160;51.858;4.398;2023-02-02T12:05:31;17.13;;;2.40;;
40453;SDS011;26160;51.858;4.398;2023-02-02T12:11:35;14.03;;;2.40;;
40453;SDS011;26160;51.858;4.398;2023-02-02T12:17:42;19.03;;;2.60;;
40453;SDS011;26160;51.858;4.398;2023-02-02T12:28:44;12.77;;;2.30;;
40453;SDS011;26160;51.858;4.398;2023-02-02T12:40:31;14.50;;;2.73;;
40453;SDS011;26160;51.858;4.398;2023-02-02T12:43:22;16.33;;;2.57;;
40453;SDS011;26160;51.858;4.398;2023-02-02T14:01:17;15.10;;;3.43;;
40453;SDS011;26160;51.858;4.398;2023-02-02T14:03:57;14.53;;;3.67;;
40453;SDS011;26160;51.858;4.398;2023-02-02T14:58:53;26.50;;;4.47;;
40453;SDS011;26160;51.858;4.398;2023-02-02T15:01:31;20.73;;;4.47;;
40453;SDS011;26160;51.858;4.398;2023-02-02T15:06:49;25.03;;;4.20;;
40453;SDS011;26160;51.858;4.398;2023-02-02T15:34:03;31.13;;;5.57;;
40453;SDS011;26160;51.858;4.398;2023-02-02T15:55:40;22.50;;;3.97;;
40453;SDS011;26160;51.858;4.398;2023-02-02T16:22:05;21.13;;;3.77;;
40453;SDS011;26160;51.858;4.398;2023-02-02T16:33:46;9.97;;;3.10;;
40453;SDS011;26160;51.858;4.398;2023-02-02T16:50:15;17.40;;;4.10;;
40453;SDS011;26160;51.858;4.398;2023-02-02T16:55:46;17.47;;;3.67;;
40453;SDS011;26160;51.858;4.398;2023-02-02T16:58:17;16.00;;;3.90;;
40453;SDS011;26160;51.858;4.398;2023-02-02T17:05:58;23.07;;;4.63;;
40453;SDS011;26160;51.858;4.398;2023-02-02T17:11:39;16.40;;;4.80;;
40453;SDS011;26160;51.858;4.398;2023-02-02T17:14:29;18.53;;;4.00;;
40453;SDS011;26160;51.858;4.398;2023-02-02T17:16:58;14.10;;;3.33;;
40453;SDS011;26160;51.858;4.398;2023-02-02T17:19:27;22.67;;;3.97;;
40453;SDS011;26160;51.858;4.398;2023-02-02T17:21:54;23.40;;;4.80;;
40453;SDS011;26160;51.858;4.398;2023-02-02T17:24:21;23.50;;;4.77;;
40453;SDS011;26160;51.858;4.398;2023-02-02T17:26:47;26.67;;;5.53;;
40453;SDS011;26160;51.858;4.398;2023-02-02T17:29:14;27.37;;;5.73;;
40453;SDS011;26160;51.858;4.398;2023-02-02T17:31:44;21.07;;;5.23;;
40453;SDS011;26160;51.858;4.398;2023-02-02T17:34:13;18.73;;;4.93;;
40453;SDS011;26160;51.858;4.398;2023-02-02T17:36:40;19.43;;;5.73;;
40453;SDS011;26160;51.858;4.398;2023-02-02T17:39:06;22.57;;;5.90;;
40453;SDS011;26160;51.858;4.398;2023-02-02T17:41:33;22.10;;;6.00;;
40453;SDS011;26160;51.858;4.398;2023-02-02T17:43:59;32.53;;;6.77;;
40453;SDS011;26160;51.858;4.398;2023-02-02T17:46:25;23.30;;;6.80;;
40453;SDS011;26160;51.858;4.398;2023-02-02T17:48:55;23.00;;;4.20;;
40453;SDS011;26160;51.858;4.398;2023-02-02T17:54:07;13.63;;;3.70;;
40453;SDS011;26160;51.858;4.398;2023-02-02T17:56:38;18.57;;;3.73;;
40453;SDS011;26160;51.858;4.398;2023-02-02T17:59:04;12.73;;;2.97;;
40453;SDS011;26160;51.858;4.398;2023-02-02T18:01:31;23.80;;;4.80;;
40453;SDS011;26160;51.858;4.398;2023-02-02T18:03:58;22.30;;;3.73;;
40453;SDS011;26160;51.858;4.398;2023-02-02T18:06:24;23.60;;;4.50;;
40453;SDS011;26160;51.858;4.398;2023-02-02T18:08:50;23.63;;;4.23;;
40453;SDS011;26160;51.858;4.398;2023-02-02T18:11:17;22.57;;;5.47;;
40453;SDS011;26160;51.858;4.398;2023-02-02T18:13:43;20.43;;;4.57;;
40453;SDS011;26160;51.858;4.398;2023-02-02T18:16:09;19.97;;;3.83;;
40453;SDS011;26160;51.858;4.398;2023-02-02T18:18:36;33.43;;;5.00;;
40453;SDS011;26160;51.858;4.398;2023-02-02T18:21:06;24.73;;;5.63;;
40453;SDS011;26160;51.858;4.398;2023-02-02T18:23:33;26.07;;;4.67;;
40453;SDS011;26160;51.858;4.398;2023-02-02T18:26:09;30.33;;;5.53;;
40453;SDS011;26160;51.858;4.398;2023-02-02T18:28:37;22.10;;;5.63;;
40453;SDS011;26160;51.858;4.398;2023-02-02T18:31:07;22.93;;;5.20;;
40453;SDS011;26160;51.858;4.398;2023-02-02T18:33:34;21.77;;;4.63;;
40453;SDS011;26160;51.858;4.398;2023-02-02T18:36:04;17.17;;;4.73;;
40453;SDS011;26160;51.858;4.398;2023-02-02T18:38:32;20.73;;;4.57;;
40453;SDS011;26160;51.858;4.398;2023-02-02T18:40:58;19.90;;;3.90;;
40453;SDS011;26160;51.858;4.398;2023-02-02T18:43:26;20.77;;;4.93;;
40453;SDS011;26160;51.858;4.398;2023-02-02T18:45:56;18.20;;;4.43;;
40453;SDS011;26160;51.858;4.398;2023-02-02T18:48:23;16.27;;;3.57;;
40453;SDS011;26160;51.858;4.398;2023-02-02T18:50:50;18.73;;;4.80;;
40453;SDS011;26160;51.858;4.398;2023-02-02T18:53:16;19.57;;;5.37;;
40453;SDS011;26160;51.858;4.398;2023-02-02T18:55:42;21.27;;;4.07;;
40453;SDS011;26160;51.858;4.398;2023-02-02T18:58:08;14.23;;;4.53;;
40453;SDS011;26160;51.858;4.398;2023-02-02T19:00:41;25.60;;;4.77;;
40453;SDS011;26160;51.858;4.398;2023-02-02T19:03:08;27.80;;;4.67;;
40453;SDS011;26160;51.858;4.398;2023-02-02T19:05:34;15.53;;;4.10;;
40453;SDS011;26160;51.858;4.398;2023-02-02T19:08:19;32.00;;;4.20;;
40453;SDS011;26160;51.858;4.398;2023-02-02T19:10:45;17.63;;;4.40;;
40453;SDS011;26160;51.858;4.398;2023-02-02T19:13:15;23.23;;;4.37;;
40453;SDS011;26160;51.858;4.398;2023-02-02T19:15:47;16.63;;;3.67;;
40453;SDS011;26160;51.858;4.398;2023-02-02T19:18:18;12.63;;;3.77;;
40453;SDS011;26160;51.858;4.398;2023-02-02T19:20:45;18.37;;;3.93;;
40453;SDS011;26160;51.858;4.398;2023-02-02T19:23:13;17.57;;;3.63;;
40453;SDS011;26160;51.858;4.398;2023-02-02T19:25:41;23.90;;;4.33;;
40453;SDS011;26160;51.858;4.398;2023-02-02T19:28:23;27.23;;;3.95;;
40453;SDS011;26160;51.858;4.398;2023-02-02T19:30:51;24.90;;;4.60;;
40453;SDS011;26160;51.858;4.398;2023-02-02T19:33:19;24.07;;;4.73;;
40453;SDS011;26160;51.858;4.398;2023-02-02T19:35:48;24.70;;;4.47;;
40453;SDS011;26160;51.858;4.398;2023-02-02T19:38:17;19.50;;;4.10;;
40453;SDS011;26160;51.858;4.398;2023-02-02T19:40:45;21.80;;;4.50;;
40453;SDS011;26160;51.858;4.398;2023-02-02T19:45:38;28.13;;;4.03;;
40453;SDS011;26160;51.858;4.398;2023-02-02T19:48:14;29.27;;;4.10;;
40453;SDS011;26160;51.858;4.398;2023-02-02T19:50:43;20.43;;;4.37;;
40453;SDS011;26160;51.858;4.398;2023-02-02T19:55:49;27.47;;;3.80;;
40453;SDS011;26160;51.858;4.398;2023-02-02T19:58:20;24.60;;;3.80;;
40453;SDS011;26160;51.858;4.398;2023-02-02T20:00:49;22.25;;;3.95;;
40453;SDS011;26160;51.858;4.398;2023-02-02T20:03:23;22.97;;;4.17;;
40453;SDS011;26160;51.858;4.398;2023-02-02T20:05:52;22.33;;;3.57;;
40453;SDS011;26160;51.858;4.398;2023-02-02T20:08:49;27.87;;;5.00;;
40453;SDS011;26160;51.858;4.398;2023-02-02T20:14:52;28.57;;;4.90;;
40453;SDS011;26160;51.858;4.398;2023-02-02T20:17:25;24.23;;;5.23;;
40453;SDS011;26160;51.858;4.398;2023-02-02T20:19:53;29.60;;;3.93;;
40453;SDS011;26160;51.858;4.398;2023-02-02T20:22:22;23.77;;;4.07;;
40453;SDS011;26160;51.858;4.398;2023-02-02T20:24:53;24.00;;;3.57;;
40453;SDS011;26160;51.858;4.398;2023-02-02T20:27:22;31.83;;;3.87;;
40453;SDS011;26160;51.858;4.398;2023-02-02T20:29:52;31.80;;;4.70;;
40453;SDS011;26160;51.858;4.398;2023-02-02T20:32:36;26.90;;;4.20;;
40453;SDS011;26160;51.858;4.398;2023-02-02T20:37:59;20.47;;;4.60;;
40453;SDS011;26160;51.858;4.398;2023-02-02T20:40:26;21.70;;;3.83;;
40453;SDS011;26160;51.858;4.398;2023-02-02T20:42:53;29.33;;;5.10;;
40453;SDS011;26160;51.858;4.398;2023-02-02T20:45:22;23.50;;;4.80;;
40453;SDS011;26160;51.858;4.398;2023-02-02T20:47:49;28.73;;;4.03;;
40453;SDS011;26160;51.858;4.398;2023-02-02T20:50:16;23.73;;;3.47;;
40453;SDS011;26160;51.858;4.398;2023-02-02T20:52:44;26.93;;;4.03;;
40453;SDS011;26160;51.858;4.398;2023-02-02T20:55:10;28.10;;;3.63;;
40453;SDS011;26160;51.858;4.398;2023-02-02T20:57:36;24.93;;;4.13;;
40453;SDS011;26160;51.858;4.398;2023-02-02T21:00:04;26.20;;;3.60;;
40453;SDS011;26160;51.858;4.398;2023-02-02T21:02:31;19.37;;;3.43;;
40453;SDS011;26160;51.858;4.398;2023-02-02T21:04:58;29.93;;;5.10;;
40453;SDS011;26160;51.858;4.398;2023-02-02T21:07:25;28.90;;;4.67;;
40453;SDS011;26160;51.858;4.398;2023-02-02T21:09:57;22.97;;;3.83;;
40453;SDS011;26160;51.858;4.398;2023-02-02T21:12:24;22.13;;;3.53;;
40453;SDS011;26160;51.858;4.398;2023-02-02T21:14:51;22.80;;;3.80;;
40453;SDS011;26160;51.858;4.398;2023-02-02T21:17:24;18.37;;;4.07;;
40453;SDS011;26160;51.858;4.398;2023-02-02T21:22:17;22.67;;;3.73;;
40453;SDS011;26160;51.858;4.398;2023-02-02T21:24:47;26.23;;;3.80;;
40453;SDS011;26160;51.858;4.398;2023-02-02T21:27:13;26.10;;;3.97;;
40453;SDS011;26160;51.858;4.398;2023-02-02T21:29:39;26.77;;;4.07;;
40453;SDS011;26160;51.858;4.398;2023-02-02T21:32:05;25.07;;;4.37;;
40453;SDS011;26160;51.858;4.398;2023-02-02T21:34:32;20.20;;;3.87;;
40453;SDS011;26160;51.858;4.398;2023-02-02T21:36:59;26.40;;;4.73;;
40453;SDS011;26160;51.858;4.398;2023-02-02T21:39:29;21.07;;;3.73;;
40453;SDS011;26160;51.858;4.398;2023-02-02T21:44:32;31.25;;;4.72;;
40453;SDS011;26160;51.858;4.398;2023-02-02T21:47:01;22.07;;;3.87;;
40453;SDS011;26160;51.858;4.398;2023-02-02T21:49:35;15.77;;;3.80;;
40453;SDS011;26160;51.858;4.398;2023-02-02T21:52:11;20.57;;;3.63;;
40453;SDS011;26160;51.858;4.398;2023-02-02T21:54:39;23.67;;;4.40;;
40453;SDS011;26160;51.858;4.398;2023-02-02T21:57:23;22.17;;;4.47;;
40453;SDS011;26160;51.858;4.398;2023-02-02T21:59:58;15.70;;;2.87;;
40453;SDS011;26160;51.858;4.398;2023-02-02T22:02:37;29.13;;;4.77;;
40453;SDS011;26160;51.858;4.398;2023-02-02T22:05:12;19.10;;;3.40;;
40453;SDS011;26160;51.858;4.398;2023-02-02T22:07:43;22.43;;;3.53;;
40453;SDS011;26160;51.858;4.398;2023-02-02T22:13:01;25.63;;;3.60;;
40453;SDS011;26160;51.858;4.398;2023-02-02T22:15:44;21.50;;;3.97;;
40453;SDS011;26160;51.858;4.398;2023-02-02T22:18:12;15.60;;;3.20;;
40453;SDS011;26160;51.858;4.398;2023-02-02T22:23:16;17.97;;;3.00;;
40453;SDS011;26160;51.858;4.398;2023-02-02T22:25:44;22.07;;;2.80;;
40453;SDS011;26160;51.858;4.398;2023-02-02T22:28:16;19.83;;;3.03;;
40453;SDS011;26160;51.858;4.398;2023-02-02T22:30:43;18.13;;;3.83;;
40453;SDS011;26160;51.858;4.398;2023-02-02T22:33:10;20.47;;;3.57;;
40453;SDS011;26160;51.858;4.398;2023-02-02T22:35:38;22.63;;;3.70;;
40453;SDS011;26160;51.858;4.398;2023-02-02T22:38:05;19.73;;;3.53;;
40453;SDS011;26160;51.858;4.398;2023-02-02T22:40:31;17.17;;;3.10;;
40453;SDS011;26160;51.858;4.398;2023-02-02T22:42:58;20.23;;;3.00;;
40453;SDS011;26160;51.858;4.398;2023-02-02T22:45:26;18.73;;;3.37;;
40453;SDS011;26160;51.858;4.398;2023-02-02T22:47:52;18.73;;;3.43;;
40453;SDS011;26160;51.858;4.398;2023-02-02T22:50:19;23.60;;;3.60;;
40453;SDS011;26160;51.858;4.398;2023-02-02T22:52:48;25.97;;;3.93;;
40453;SDS011;26160;51.858;4.398;2023-02-02T22:55:14;26.27;;;4.43;;
40453;SDS011;26160;51.858;4.398;2023-02-02T22:57:40;18.53;;;3.17;;
40453;SDS011;26160;51.858;4.398;2023-02-02T23:00:11;24.00;;;4.10;;
40453;SDS011;26160;51.858;4.398;2023-02-02T23:02:39;19.00;;;3.70;;
40453;SDS011;26160;51.858;4.398;2023-02-02T23:05:06;11.60;;;2.87;;
40453;SDS011;26160;51.858;4.398;2023-02-02T23:07:34;21.27;;;3.37;;
40453;SDS011;26160;51.858;4.398;2023-02-02T23:10:00;24.70;;;4.17;;
40453;SDS011;26160;51.858;4.398;2023-02-02T23:12:27;22.03;;;3.50;;
40453;SDS011;26160;51.858;4.398;2023-02-02T23:14:54;21.10;;;4.67;;
40453;SDS011;26160;51.858;4.398;2023-02-02T23:17:20;25.53;;;3.90;;
40453;SDS011;26160;51.858;4.398;2023-02-02T23:19:46;25.40;;;4.40;;
40453;SDS011;26160;51.858;4.398;2023-02-02T23:22:12;25.13;;;4.00;;
40453;SDS011;26160;51.858;4.398;2023-02-02T23:24:39;24.13;;;4.20;;
40453;SDS011;26160;51.858;4.398;2023-02-02T23:27:05;26.20;;;4.00;;
40453;SDS011;26160;51.858;4.398;2023-02-02T23:29:31;34.10;;;4.30;;
40453;SDS011;26160;51.858;4.398;2023-02-02T23:31:57;25.20;;;4.40;;
40453;SDS011;26160;51.858;4.398;2023-02-02T23:34:23;22.83;;;4.13;;
40453;SDS011;26160;51.858;4.398;2023-02-02T23:36:50;22.57;;;3.93;;
40453;SDS011;26160;51.858;4.398;2023-02-02T23:39:18;22.40;;;4.23;;
40453;SDS011;26160;51.858;4.398;2023-02-02T23:41:44;25.63;;;3.93;;
40453;SDS011;26160;51.858;4.398;2023-02-02T23:44:10;23.07;;;4.27;;
40453;SDS011;26160;51.858;4.398;2023-02-02T23:46:36;26.27;;;5.03;;
40453;SDS011;26160;51.858;4.398;2023-02-02T23:49:04;26.10;;;4.40;;
40453;SDS011;26160;51.858;4.398;2023-02-02T23:51:30;27.50;;;3.90;;
40453;SDS011;26160;51.858;4.398;2023-02-02T23:53:57;17.80;;;4.73;;
40453;SDS011;26160;51.858;4.398;2023-02-02T23:56:24;19.60;;;3.63;;
40453;SDS011;26160;51.858;4.398;2023-02-02T23:58:51;19.17;;;3.47;;
